Time;durP1;ratioP1;P1;durP2;ratioP2;P2;SDS_P1;SDS_P2;PMS_P1;PMS_P2;Temp;Humidity;BMP_temperature;BMP_pressure;BME280_temperature;BME280_humidity;BME280_pressure;Samples;Min_cycle;Max_cycle;Signal;HPM_P1;HPM_P2
2023/11/11 00:02:25;;;;;;;1.43;1.33;;;;;;;;;;4941308;28;20297;-84
2023/11/11 00:04:50;;;;;;;1.83;1.40;;;;;;;;;;4950298;28;20700;-84
2023/11/11 00:07:16;;;;;;;2.17;1.20;;;;;;;;;;4946185;28;20219;-84
2023/11/11 00:09:41;;;;;;;2.13;1.30;;;;;;;;;;4948221;28;20214;-83
2023/11/11 00:12:07;;;;;;;2.47;1.20;;;;;;;;;;4979284;28;20218;-85
2023/11/11 00:14:38;;;;;;;4.53;1.57;;;;;;;;;;4946191;28;20254;-85
2023/11/11 00:17:04;;;;;;;3.53;1.70;;;;;;;;;;4955570;28;20247;-84
2023/11/11 00:19:32;;;;;;;1.70;1.30;;;;;;;;;;4943276;29;20222;-85
2023/11/11 00:21:58;;;;;;;2.23;1.33;;;;;;;;;;4914139;29;20224;-85
2023/11/11 00:24:23;;;;;;;5.63;1.63;;;;;;;;;;4945153;28;20245;-85
2023/11/11 00:26:49;;;;;;;2.23;1.60;;;;;;;;;;4934802;29;20228;-84
2023/11/11 00:29:18;;;;;;;2.17;1.30;;;;;;;;;;4925465;29;20227;-84
2023/11/11 00:31:49;;;;;;;2.53;1.40;;;;;;;;;;4961784;29;20216;-85
2023/11/11 00:34:18;;;;;;;3.67;1.67;;;;;;;;;;4940060;28;20227;-85
2023/11/11 00:36:47;;;;;;;2.87;1.70;;;;;;;;;;4941642;29;20227;-84
2023/11/11 00:39:13;;;;;;;5.83;1.83;;;;;;;;;;4912908;28;20569;-84
2023/11/11 00:41:39;;;;;;;1.77;1.50;;;;;;;;;;4930856;29;20274;-85
2023/11/11 00:44:09;;;;;;;4.20;1.60;;;;;;;;;;4905684;29;20223;-87
2023/11/11 00:46:41;;;;;;;5.03;1.67;;;;;;;;;;4911091;29;20247;-84
2023/11/11 00:49:09;;;;;;;2.60;1.50;;;;;;;;;;4927517;28;20223;-82
2023/11/11 00:51:36;;;;;;;4.67;1.60;;;;;;;;;;4937278;29;20783;-84
2023/11/11 00:54:01;;;;;;;5.93;1.77;;;;;;;;;;4928226;28;20692;-84
2023/11/11 00:56:30;;;;;;;3.67;1.50;;;;;;;;;;4961455;28;20738;-84
2023/11/11 00:58:58;;;;;;;2.13;1.27;;;;;;;;;;4937744;28;20309;-84
2023/11/11 01:01:25;;;;;;;2.47;1.63;;;;;;;;;;4965615;28;22445;-85
2023/11/11 01:03:53;;;;;;;2.63;1.40;;;;;;;;;;4969288;28;20226;-83
2023/11/11 01:06:21;;;;;;;1.83;1.43;;;;;;;;;;4955795;28;20309;-85
2023/11/11 01:08:47;;;;;;;5.10;1.53;;;;;;;;;;4959588;28;20231;-84
2023/11/11 01:11:14;;;;;;;3.93;1.50;;;;;;;;;;4958684;28;20229;-84
2023/11/11 01:13:45;;;;;;;2.60;1.50;;;;;;;;;;4956217;28;20218;-84
2023/11/11 01:16:14;;;;;;;1.93;1.40;;;;;;;;;;4937559;28;20222;-84
2023/11/11 01:18:39;;;;;;;4.03;1.60;;;;;;;;;;4952955;28;20223;-84
2023/11/11 01:21:07;;;;;;;2.83;1.30;;;;;;;;;;4953962;28;20241;-84
2023/11/11 01:23:36;;;;;;;1.73;1.30;;;;;;;;;;4975784;28;20718;-84
2023/11/11 01:26:04;;;;;;;2.47;1.40;;;;;;;;;;4929318;28;20233;-82
2023/11/11 01:28:30;;;;;;;2.93;1.50;;;;;;;;;;4958747;28;20219;-84
2023/11/11 01:30:56;;;;;;;2.37;1.30;;;;;;;;;;4961211;28;20277;-84
2023/11/11 01:33:22;;;;;;;2.57;1.37;;;;;;;;;;4957703;28;20306;-82
2023/11/11 01:35:51;;;;;;;2.70;1.30;;;;;;;;;;4942875;28;20276;-81
2023/11/11 01:38:19;;;;;;;2.87;1.43;;;;;;;;;;4948071;28;20233;-82
2023/11/11 01:40:47;;;;;;;2.80;1.67;;;;;;;;;;4973461;28;20250;-83
2023/11/11 01:43:14;;;;;;;2.07;1.20;;;;;;;;;;4944491;28;20246;-84
2023/11/11 01:45:45;;;;;;;2.47;1.40;;;;;;;;;;4954868;28;20237;-82
2023/11/11 01:48:11;;;;;;;2.53;1.40;;;;;;;;;;4942658;28;20224;-85
2023/11/11 01:50:39;;;;;;;5.13;1.40;;;;;;;;;;4939571;28;20219;-85
2023/11/11 01:53:12;;;;;;;1.27;1.07;;;;;;;;;;4923988;28;20230;-84
2023/11/11 01:55:38;;;;;;;2.23;1.40;;;;;;;;;;4925601;28;20238;-83
2023/11/11 01:58:04;;;;;;;5.27;1.60;;;;;;;;;;4929434;28;20221;-83
2023/11/11 02:00:35;;;;;;;4.87;1.67;;;;;;;;;;4937323;28;20226;-82
2023/11/11 02:03:06;;;;;;;2.73;1.43;;;;;;;;;;4947454;28;20242;-82
2023/11/11 02:05:36;;;;;;;2.50;1.30;;;;;;;;;;4947658;28;20229;-84
2023/11/11 02:08:05;;;;;;;2.13;1.40;;;;;;;;;;4957146;28;20238;-84
2023/11/11 02:10:32;;;;;;;1.47;1.20;;;;;;;;;;4947388;28;20305;-84
2023/11/11 02:13:01;;;;;;;5.50;1.60;;;;;;;;;;4954352;28;20238;-84
2023/11/11 02:15:31;;;;;;;2.00;1.43;;;;;;;;;;4937862;28;20230;-84
2023/11/11 02:18:00;;;;;;;1.60;1.30;;;;;;;;;;4920482;29;21016;-84
2023/11/11 02:20:33;;;;;;;2.80;1.37;;;;;;;;;;4943483;28;20294;-83
2023/11/11 02:23:02;;;;;;;2.17;1.30;;;;;;;;;;4938283;28;20735;-84
2023/11/11 02:25:28;;;;;;;3.57;1.50;;;;;;;;;;4954889;28;20970;-84
2023/11/11 02:27:56;;;;;;;2.73;1.50;;;;;;;;;;4960139;28;20581;-84
2023/11/11 02:30:22;;;;;;;3.10;1.90;;;;;;;;;;4959937;28;20322;-83
2023/11/11 02:32:48;;;;;;;5.07;1.83;;;;;;;;;;4944057;28;20234;-82
2023/11/11 02:35:14;;;;;;;2.77;1.50;;;;;;;;;;4944992;28;20236;-84
2023/11/11 02:37:42;;;;;;;7.20;1.80;;;;;;;;;;4941631;28;20219;-83
2023/11/11 02:40:12;;;;;;;1.83;1.50;;;;;;;;;;4957597;28;20273;-84
2023/11/11 02:42:41;;;;;;;3.17;1.93;;;;;;;;;;4969446;28;20222;-84
2023/11/11 02:45:08;;;;;;;4.93;1.43;;;;;;;;;;4971914;28;20226;-83
2023/11/11 02:47:36;;;;;;;3.30;1.60;;;;;;;;;;4949687;28;20242;-84
2023/11/11 02:50:02;;;;;;;2.80;1.50;;;;;;;;;;4923706;29;20234;-84
2023/11/11 02:52:30;;;;;;;2.37;1.67;;;;;;;;;;4921430;29;20243;-84
2023/11/11 02:54:58;;;;;;;3.60;1.70;;;;;;;;;;4923384;29;20705;-83
2023/11/11 02:57:24;;;;;;;2.37;1.80;;;;;;;;;;4941041;28;20582;-85
2023/11/11 02:59:50;;;;;;;4.33;1.80;;;;;;;;;;4927408;29;20251;-83
2023/11/11 03:02:21;;;;;;;3.53;1.63;;;;;;;;;;4943315;28;20222;-84
2023/11/11 03:04:49;;;;;;;4.63;1.40;;;;;;;;;;4942801;29;20230;-84
2023/11/11 03:07:18;;;;;;;2.57;1.37;;;;;;;;;;4919413;28;20242;-83
2023/11/11 03:09:46;;;;;;;4.17;1.40;;;;;;;;;;4908725;29;20229;-83
2023/11/11 03:12:11;;;;;;;2.93;1.40;;;;;;;;;;4940628;28;20223;-83
2023/11/11 03:14:37;;;;;;;2.97;1.50;;;;;;;;;;4924400;29;20230;-83
2023/11/11 03:17:05;;;;;;;1.63;1.30;;;;;;;;;;4934554;28;20234;-82
2023/11/11 03:19:33;;;;;;;1.83;1.30;;;;;;;;;;4935534;28;20230;-84
2023/11/11 03:21:59;;;;;;;2.10;1.67;;;;;;;;;;4914107;29;20219;-84
2023/11/11 03:24:24;;;;;;;3.10;1.30;;;;;;;;;;4924047;28;20223;-85
2023/11/11 03:26:52;;;;;;;5.37;1.80;;;;;;;;;;4923098;29;20230;-83
2023/11/11 03:29:18;;;;;;;3.27;1.30;;;;;;;;;;4930507;28;20238;-85
2023/11/11 03:31:43;;;;;;;3.60;1.50;;;;;;;;;;4935235;28;20249;-83
2023/11/11 03:34:09;;;;;;;3.17;1.50;;;;;;;;;;4913097;28;20806;-83
2023/11/11 03:36:37;;;;;;;3.87;1.57;;;;;;;;;;4936263;29;20257;-84
2023/11/11 03:39:04;;;;;;;2.60;1.40;;;;;;;;;;4926435;28;20238;-83
2023/11/11 03:41:32;;;;;;;2.93;1.60;;;;;;;;;;4953073;29;20233;-85
2023/11/11 03:44:00;;;;;;;3.63;1.70;;;;;;;;;;4919795;29;20227;-83
2023/11/11 03:46:29;;;;;;;3.43;1.57;;;;;;;;;;4918775;28;20252;-83
2023/11/11 03:48:59;;;;;;;2.97;1.60;;;;;;;;;;4942094;29;20595;-84
2023/11/11 03:51:25;;;;;;;2.43;1.60;;;;;;;;;;4969493;28;20221;-82
2023/11/11 03:53:53;;;;;;;1.97;1.50;;;;;;;;;;4940565;29;20285;-83
2023/11/11 03:56:20;;;;;;;3.97;1.60;;;;;;;;;;4920117;28;20226;-82
2023/11/11 03:58:46;;;;;;;4.50;1.77;;;;;;;;;;4919724;29;20211;-83
2023/11/11 04:05:01;;;;;;;3.20;1.60;;;;;;;;;;4966640;28;20265;-84
2023/11/11 04:07:29;;;;;;;2.53;1.60;;;;;;;;;;4929672;28;20224;-84
2023/11/11 04:09:58;;;;;;;3.33;1.87;;;;;;;;;;4930907;28;20227;-85
2023/11/11 04:12:24;;;;;;;2.20;1.60;;;;;;;;;;4934511;28;20257;-84
2023/11/11 04:14:50;;;;;;;3.90;1.80;;;;;;;;;;4953249;28;20676;-84
2023/11/11 04:17:16;;;;;;;3.03;1.60;;;;;;;;;;4936018;28;20906;-82
2023/11/11 04:19:46;;;;;;;3.80;1.90;;;;;;;;;;4934840;28;20665;-82
2023/11/11 04:22:16;;;;;;;3.20;1.80;;;;;;;;;;4937737;28;20595;-84
2023/11/11 04:24:42;;;;;;;6.80;2.00;;;;;;;;;;4917243;29;20606;-84
2023/11/11 04:27:11;;;;;;;5.57;2.00;;;;;;;;;;4923656;28;20227;-82
2023/11/11 04:29:40;;;;;;;1.60;1.50;;;;;;;;;;4918649;29;20255;-83
2023/11/11 04:32:07;;;;;;;4.23;1.80;;;;;;;;;;4932595;28;20229;-82
2023/11/11 04:34:35;;;;;;;6.00;2.10;;;;;;;;;;4934252;29;20262;-82
2023/11/11 04:37:03;;;;;;;4.67;1.77;;;;;;;;;;4933866;28;20928;-81
2023/11/11 04:39:34;;;;;;;4.83;1.83;;;;;;;;;;4934964;29;20234;-81
2023/11/11 04:41:59;;;;;;;3.50;2.03;;;;;;;;;;4920307;28;20223;-81
2023/11/11 04:44:25;;;;;;;3.33;2.27;;;;;;;;;;4948294;28;20325;-80
2023/11/11 04:46:51;;;;;;;3.30;2.30;;;;;;;;;;4918467;28;20220;-81
2023/11/11 04:49:16;;;;;;;5.10;2.57;;;;;;;;;;4950959;28;20281;-81
2023/11/11 04:51:42;;;;;;;4.53;2.20;;;;;;;;;;4931905;29;20230;-81
2023/11/11 04:54:10;;;;;;;6.10;2.20;;;;;;;;;;4934980;28;20226;-82
2023/11/11 04:56:36;;;;;;;4.50;2.53;;;;;;;;;;4942970;28;20970;-81
2023/11/11 04:59:03;;;;;;;5.00;2.30;;;;;;;;;;4967516;28;20226;-81
2023/11/11 05:01:29;;;;;;;4.47;2.77;;;;;;;;;;4970404;28;20289;-81
2023/11/11 05:03:55;;;;;;;4.57;2.60;;;;;;;;;;4948194;28;20223;-81
2023/11/11 05:06:27;;;;;;;4.23;2.67;;;;;;;;;;4969531;28;20223;-82
2023/11/11 05:08:54;;;;;;;4.97;2.90;;;;;;;;;;4940439;28;20215;-82
2023/11/11 05:11:20;;;;;;;5.00;2.80;;;;;;;;;;4945491;28;20218;-82
2023/11/11 05:13:46;;;;;;;3.77;2.90;;;;;;;;;;4955099;28;20231;-80
2023/11/11 05:16:24;;;;;;;4.00;2.90;;;;;;;;;;4914987;28;20234;-81
2023/11/11 05:18:52;;;;;;;7.00;2.90;;;;;;;;;;4966939;28;20227;-85
2023/11/11 05:21:17;;;;;;;4.27;3.33;;;;;;;;;;4969360;28;20222;-85
2023/11/11 05:23:43;;;;;;;6.07;2.80;;;;;;;;;;4956983;28;20230;-82
2023/11/11 05:26:08;;;;;;;5.13;3.47;;;;;;;;;;4954344;28;20232;-81
2023/11/11 05:28:34;;;;;;;4.50;3.47;;;;;;;;;;4975644;28;20297;-83
2023/11/11 05:31:00;;;;;;;5.57;3.60;;;;;;;;;;4949063;28;20223;-81
2023/11/11 05:33:26;;;;;;;5.53;3.80;;;;;;;;;;4952926;28;20238;-82
2023/11/11 05:35:51;;;;;;;5.03;4.30;;;;;;;;;;4968298;28;20226;-82
2023/11/11 05:38:17;;;;;;;5.77;3.97;;;;;;;;;;4936983;28;20624;-82
2023/11/11 05:40:45;;;;;;;5.17;4.37;;;;;;;;;;4954899;28;20224;-82
2023/11/11 05:43:10;;;;;;;5.50;5.00;;;;;;;;;;4944868;28;20671;-82
2023/11/11 05:45:39;;;;;;;5.93;5.27;;;;;;;;;;4981512;28;20227;-82
2023/11/11 05:48:05;;;;;;;5.03;4.57;;;;;;;;;;4963561;28;20699;-82
2023/11/11 05:50:31;;;;;;;5.60;4.43;;;;;;;;;;4951909;28;20257;-83
2023/11/11 05:52:56;;;;;;;6.53;5.33;;;;;;;;;;4953094;28;20289;-83
2023/11/11 05:55:23;;;;;;;13.80;12.43;;;;;;;;;;4950616;28;20702;-84
2023/11/11 05:57:49;;;;;;;10.23;9.33;;;;;;;;;;4955004;28;20236;-81
2023/11/11 06:00:17;;;;;;;10.70;9.47;;;;;;;;;;4949718;28;20235;-83
2023/11/11 06:02:43;;;;;;;7.90;7.13;;;;;;;;;;4930327;29;20218;-83
2023/11/11 06:05:10;;;;;;;7.10;6.50;;;;;;;;;;4939230;28;20285;-80
2023/11/11 06:07:38;;;;;;;6.57;5.97;;;;;;;;;;4940406;29;20222;-80
2023/11/11 06:10:08;;;;;;;15.50;14.07;;;;;;;;;;4941402;28;20231;-82
2023/11/11 06:12:35;;;;;;;15.27;13.90;;;;;;;;;;4956753;29;20279;-81
2023/11/11 06:15:04;;;;;;;15.40;12.97;;;;;;;;;;4939867;29;20234;-81
2023/11/11 06:17:29;;;;;;;13.60;12.30;;;;;;;;;;4959358;28;20226;-82
2023/11/11 06:19:58;;;;;;;15.70;14.20;;;;;;;;;;4970282;28;20240;-81
2023/11/11 06:22:28;;;;;;;8.93;6.87;;;;;;;;;;4956274;28;20211;-82
2023/11/11 06:24:56;;;;;;;7.63;6.83;;;;;;;;;;4963181;28;20325;-83
2023/11/11 06:27:22;;;;;;;7.17;6.60;;;;;;;;;;4963723;28;20229;-83
2023/11/11 06:29:50;;;;;;;8.03;7.27;;;;;;;;;;4926048;28;20229;-84
2023/11/11 06:32:17;;;;;;;12.50;11.40;;;;;;;;;;4956309;28;20228;-83
2023/11/11 06:34:45;;;;;;;11.07;10.07;;;;;;;;;;4967167;28;20198;-84
2023/11/11 06:37:10;;;;;;;9.67;8.67;;;;;;;;;;4940981;28;20222;-83
2023/11/11 06:39:38;;;;;;;7.53;6.90;;;;;;;;;;4951198;28;20241;-83
2023/11/11 06:42:03;;;;;;;7.90;7.10;;;;;;;;;;4947098;28;20352;-83
2023/11/11 06:44:29;;;;;;;6.67;6.17;;;;;;;;;;4946914;28;20307;-81
2023/11/11 06:46:57;;;;;;;6.97;6.33;;;;;;;;;;4963736;28;20225;-83
2023/11/11 06:49:27;;;;;;;9.93;6.00;;;;;;;;;;4968894;28;20230;-83
2023/11/11 06:51:52;;;;;;;6.83;6.17;;;;;;;;;;4955764;28;20256;-82
2023/11/11 06:54:18;;;;;;;6.60;5.67;;;;;;;;;;4925215;28;20719;-84
2023/11/11 06:56:45;;;;;;;7.00;6.27;;;;;;;;;;4961256;28;20226;-83
2023/11/11 06:59:11;;;;;;;6.80;6.20;;;;;;;;;;4919912;28;20599;-82
2023/11/11 07:01:39;;;;;;;6.67;5.97;;;;;;;;;;4921617;29;20712;-81
2023/11/11 07:04:04;;;;;;;7.17;6.57;;;;;;;;;;4922097;28;20246;-83
2023/11/11 07:06:30;;;;;;;6.90;6.30;;;;;;;;;;4949285;28;20722;-83
2023/11/11 07:08:58;;;;;;;8.67;6.87;;;;;;;;;;4941236;29;20226;-83
2023/11/11 07:11:24;;;;;;;7.07;6.47;;;;;;;;;;4914248;28;20242;-82
2023/11/11 07:13:55;;;;;;;7.50;6.70;;;;;;;;;;4937371;29;20274;-81
2023/11/11 07:16:23;;;;;;;8.80;7.10;;;;;;;;;;4958693;28;20303;-83
2023/11/11 07:18:48;;;;;;;8.03;7.23;;;;;;;;;;4915470;29;20230;-83
2023/11/11 07:21:21;;;;;;;8.23;7.43;;;;;;;;;;4919623;28;20223;-83
2023/11/11 07:23:53;;;;;;;9.13;7.83;;;;;;;;;;4920902;29;20229;-81
2023/11/11 07:26:21;;;;;;;8.17;7.47;;;;;;;;;;4910529;28;20216;-82
2023/11/11 07:28:48;;;;;;;8.80;8.10;;;;;;;;;;4920116;29;20218;-81
2023/11/11 07:31:18;;;;;;;8.87;8.00;;;;;;;;;;4927730;28;20218;-82
2023/11/11 07:33:44;;;;;;;8.20;7.40;;;;;;;;;;4914740;29;20330;-83
2023/11/11 07:36:09;;;;;;;10.13;9.23;;;;;;;;;;4935334;28;20314;-82
2023/11/11 07:38:46;;;;;;;12.93;11.83;;;;;;;;;;4933117;28;20721;-81
2023/11/11 07:41:14;;;;;;;10.80;9.80;;;;;;;;;;4902433;28;20281;-81
2023/11/11 07:43:42;;;;;;;10.17;9.37;;;;;;;;;;4932356;28;20600;-81
2023/11/11 07:46:09;;;;;;;11.47;10.37;;;;;;;;;;4951957;28;20250;-83
2023/11/11 07:48:34;;;;;;;12.40;11.10;;;;;;;;;;4949573;28;20219;-83
2023/11/11 07:51:04;;;;;;;11.73;10.63;;;;;;;;;;4949537;28;20294;-82
2023/11/11 07:53:32;;;;;;;12.23;11.10;;;;;;;;;;4905291;29;20261;-82
2023/11/11 07:56:01;;;;;;;14.47;11.80;;;;;;;;;;4922393;29;20231;-82
2023/11/11 07:58:27;;;;;;;15.23;13.87;;;;;;;;;;4925168;29;20270;-83
2023/11/11 08:00:52;;;;;;;16.20;14.70;;;;;;;;;;4943614;28;20578;-83
2023/11/11 08:03:21;;;;;;;17.97;14.70;;;;;;;;;;4924751;28;20821;-83
2023/11/11 08:05:49;;;;;;;16.30;14.67;;;;;;;;;;4924788;29;20223;-83
2023/11/11 08:08:17;;;;;;;17.30;15.60;;;;;;;;;;4939979;28;20226;-83
2023/11/11 08:10:45;;;;;;;17.53;15.33;;;;;;;;;;4936640;28;20234;-83
2023/11/11 08:13:11;;;;;;;17.83;15.53;;;;;;;;;;4937139;28;20664;-83
2023/11/11 08:15:39;;;;;;;17.30;15.50;;;;;;;;;;4940618;29;20583;-83
2023/11/11 08:18:04;;;;;;;19.43;16.97;;;;;;;;;;4926168;28;20215;-83
2023/11/11 08:20:30;;;;;;;19.43;16.80;;;;;;;;;;4907068;29;20693;-80
2023/11/11 08:22:58;;;;;;;21.57;19.37;;;;;;;;;;4947183;28;20568;-83
2023/11/11 08:25:26;;;;;;;22.07;17.63;;;;;;;;;;4923969;28;20239;-82
2023/11/11 08:27:53;;;;;;;22.33;18.90;;;;;;;;;;4924039;29;20964;-83
2023/11/11 08:30:21;;;;;;;23.90;19.80;;;;;;;;;;4942415;28;20230;-82
2023/11/11 08:32:49;;;;;;;26.50;22.67;;;;;;;;;;4953409;29;20234;-83
2023/11/11 08:35:19;;;;;;;28.07;23.50;;;;;;;;;;4920788;29;20226;-82
2023/11/11 08:37:44;;;;;;;29.23;24.43;;;;;;;;;;4936191;29;20219;-83
2023/11/11 08:40:11;;;;;;;28.33;23.73;;;;;;;;;;4913599;28;20242;-82
2023/11/11 08:42:39;;;;;;;30.33;25.03;;;;;;;;;;4923862;29;20246;-83
2023/11/11 08:45:09;;;;;;;31.20;26.67;;;;;;;;;;4939660;29;20693;-82
2023/11/11 08:47:38;;;;;;;35.37;28.97;;;;;;;;;;4913446;29;20270;-83
2023/11/11 08:50:06;;;;;;;34.67;28.20;;;;;;;;;;4934891;29;20254;-84
2023/11/11 08:52:43;;;;;;;30.33;25.93;;;;;;;;;;4951746;29;20223;-84
2023/11/11 08:55:09;;;;;;;26.70;23.80;;;;;;;;;;4953300;28;20315;-84
2023/11/11 08:57:40;;;;;;;32.13;25.93;;;;;;;;;;4921000;29;20237;-84
2023/11/11 09:00:08;;;;;;;24.73;21.90;;;;;;;;;;4925866;28;20724;-83
2023/11/11 09:02:38;;;;;;;21.90;19.40;;;;;;;;;;4939677;29;20241;-82
2023/11/11 09:05:05;;;;;;;25.50;19.40;;;;;;;;;;4924710;28;20603;-82
2023/11/11 09:07:36;;;;;;;21.83;19.17;;;;;;;;;;4907173;29;20223;-83
2023/11/11 09:10:05;;;;;;;20.07;16.80;;;;;;;;;;4921650;28;20971;-84
2023/11/11 09:12:33;;;;;;;21.77;18.33;;;;;;;;;;4906738;29;20227;-84
2023/11/11 09:14:58;;;;;;;21.80;17.90;;;;;;;;;;4914192;29;20230;-84
2023/11/11 09:17:24;;;;;;;24.33;17.93;;;;;;;;;;4928563;28;20218;-84
2023/11/11 09:19:52;;;;;;;21.77;16.53;;;;;;;;;;4927076;29;20227;-82
2023/11/11 09:22:20;;;;;;;20.33;18.27;;;;;;;;;;4937045;28;20219;-82
2023/11/11 09:24:45;;;;;;;20.27;17.43;;;;;;;;;;4921930;29;20223;-82
2023/11/11 09:27:11;;;;;;;19.87;16.00;;;;;;;;;;4933352;29;20223;-85
2023/11/11 09:29:39;;;;;;;22.43;18.33;;;;;;;;;;4930160;29;20238;-83
2023/11/11 09:32:05;;;;;;;15.67;13.93;;;;;;;;;;4961531;28;20238;-83
2023/11/11 09:34:31;;;;;;;18.00;13.93;;;;;;;;;;4939147;29;20236;-83
2023/11/11 09:36:56;;;;;;;16.83;11.90;;;;;;;;;;4937966;28;20233;-87
2023/11/11 09:39:23;;;;;;;15.63;13.27;;;;;;;;;;4915109;28;20236;-80
2023/11/11 09:41:49;;;;;;;16.67;12.23;;;;;;;;;;4929562;29;20274;-80
2023/11/11 09:44:15;;;;;;;17.00;12.80;;;;;;;;;;4919512;28;20378;-79
2023/11/11 09:47:02;;;;;;;16.87;12.63;;;;;;;;;;4944226;28;20287;-79
2023/11/11 09:49:28;;;;;;;14.43;11.97;;;;;;;;;;4926068;29;20239;-79
2023/11/11 09:51:54;;;;;;;12.70;10.80;;;;;;;;;;4943390;29;20282;-78
2023/11/11 09:54:19;;;;;;;9.87;8.87;;;;;;;;;;4944498;28;20235;-79
2023/11/11 09:56:48;;;;;;;10.33;9.33;;;;;;;;;;4925917;29;20232;-79
2023/11/11 09:59:13;;;;;;;12.40;8.93;;;;;;;;;;4930579;28;20234;-78
2023/11/11 10:01:41;;;;;;;11.43;10.20;;;;;;;;;;4923472;29;20231;-80
2023/11/11 10:04:06;;;;;;;7.97;7.07;;;;;;;;;;4915087;28;20306;-80
2023/11/11 10:06:37;;;;;;;10.07;8.40;;;;;;;;;;4934094;29;20227;-79
2023/11/11 10:09:08;;;;;;;8.50;7.53;;;;;;;;;;4929177;28;20250;-81
2023/11/11 10:11:35;;;;;;;9.90;6.90;;;;;;;;;;4948791;28;20229;-78
2023/11/11 10:14:00;;;;;;;8.40;7.20;;;;;;;;;;4952287;28;20230;-80
2023/11/11 10:16:26;;;;;;;8.73;6.83;;;;;;;;;;4922962;28;20750;-79
2023/11/11 10:19:04;;;;;;;9.03;8.13;;;;;;;;;;4970130;28;20226;-79
2023/11/11 10:21:29;;;;;;;6.73;6.07;;;;;;;;;;4965370;28;20238;-80
2023/11/11 10:23:55;;;;;;;8.57;6.20;;;;;;;;;;4963078;28;20734;-76
2023/11/11 10:26:21;;;;;;;6.40;5.83;;;;;;;;;;4938962;28;20217;-79
2023/11/11 10:28:50;;;;;;;5.53;5.03;;;;;;;;;;4951876;28;20226;-77
2023/11/11 10:31:18;;;;;;;7.87;5.50;;;;;;;;;;4948962;28;20712;-80
2023/11/11 10:33:43;;;;;;;5.20;4.30;;;;;;;;;;4965947;28;20226;-77
2023/11/11 10:36:14;;;;;;;7.60;5.20;;;;;;;;;;4966608;28;20278;-78
2023/11/11 10:38:41;;;;;;;5.40;4.90;;;;;;;;;;4969707;28;20225;-78
2023/11/11 10:41:07;;;;;;;5.77;4.70;;;;;;;;;;4933480;28;20225;-79
2023/11/11 10:43:34;;;;;;;4.47;4.07;;;;;;;;;;4974618;28;20226;-86
2023/11/11 10:46:11;;;;;;;5.47;4.43;;;;;;;;;;4972804;28;20230;-86
2023/11/11 10:48:39;;;;;;;4.63;4.13;;;;;;;;;;4955788;28;20226;-87
2023/11/11 10:51:04;;;;;;;8.63;4.50;;;;;;;;;;4958954;28;20290;-85
2023/11/11 10:53:30;;;;;;;5.60;4.73;;;;;;;;;;4930008;28;20229;-85
2023/11/11 10:55:56;;;;;;;4.50;3.53;;;;;;;;;;4936775;28;20222;-86
2023/11/11 10:58:27;;;;;;;4.23;3.80;;;;;;;;;;4942645;28;20305;-85
2023/11/11 11:00:59;;;;;;;3.63;3.33;;;;;;;;;;4933056;28;20261;-84
2023/11/11 11:03:29;;;;;;;4.00;3.10;;;;;;;;;;4983393;28;20237;-86
2023/11/11 11:06:02;;;;;;;4.37;3.20;;;;;;;;;;4954658;28;20210;-84
2023/11/11 11:08:43;;;;;;;3.63;2.77;;;;;;;;;;4952522;28;20221;-85
2023/11/11 11:11:08;;;;;;;3.43;2.70;;;;;;;;;;4966716;28;20234;-83
2023/11/11 11:13:35;;;;;;;3.40;2.70;;;;;;;;;;4965075;28;20230;-85
2023/11/11 11:16:03;;;;;;;2.63;1.77;;;;;;;;;;4956818;28;20270;-85
2023/11/11 11:18:31;;;;;;;3.87;2.07;;;;;;;;;;4952665;28;20289;-85
2023/11/11 11:21:00;;;;;;;2.47;2.27;;;;;;;;;;4978369;28;20316;-83
2023/11/11 11:23:38;;;;;;;3.27;2.90;;;;;;;;;;4961492;28;20231;-84
2023/11/11 11:26:03;;;;;;;2.90;2.20;;;;;;;;;;4945698;28;20313;-84
2023/11/11 11:28:29;;;;;;;4.33;3.50;;;;;;;;;;4943511;28;20230;-83
2023/11/11 11:31:03;;;;;;;3.47;2.40;;;;;;;;;;4932192;29;20237;-85
2023/11/11 11:33:30;;;;;;;4.53;2.30;;;;;;;;;;4951917;28;20234;-85
2023/11/11 11:36:01;;;;;;;2.83;2.07;;;;;;;;;;4967580;28;20237;-83
2023/11/11 11:38:29;;;;;;;3.53;2.00;;;;;;;;;;4951619;28;20249;-83
2023/11/11 11:41:04;;;;;;;3.10;2.23;;;;;;;;;;4972218;28;20284;-87
2023/11/11 11:43:30;;;;;;;3.00;1.93;;;;;;;;;;4973961;28;20253;-86
2023/11/11 11:46:01;;;;;;;2.40;1.70;;;;;;;;;;4958476;28;20219;-84
2023/11/11 11:48:28;;;;;;;4.20;1.40;;;;;;;;;;4962510;28;20221;-87
2023/11/11 11:51:12;;;;;;;1.43;1.20;;;;;;;;;;4947074;28;20222;-86
2023/11/11 11:53:41;;;;;;;1.70;1.57;;;;;;;;;;4975994;28;20249;-85
2023/11/11 11:56:13;;;;;;;1.57;1.23;;;;;;;;;;4977114;28;20241;-84
2023/11/11 11:58:45;;;;;;;1.80;1.40;;;;;;;;;;4966027;28;20237;-86
2023/11/11 12:01:13;;;;;;;1.87;1.47;;;;;;;;;;4967517;28;20237;-84
2023/11/11 12:03:43;;;;;;;1.10;1.00;;;;;;;;;;4958919;28;20234;-83
2023/11/11 12:06:12;;;;;;;1.50;1.40;;;;;;;;;;4944326;28;20214;-84
2023/11/11 12:08:39;;;;;;;1.43;1.30;;;;;;;;;;4946259;28;20253;-85
2023/11/11 12:11:07;;;;;;;2.30;1.53;;;;;;;;;;4958238;28;20226;-86
2023/11/11 12:13:37;;;;;;;1.40;1.30;;;;;;;;;;4959633;28;20301;-86
2023/11/11 12:16:03;;;;;;;1.53;0.90;;;;;;;;;;4972504;28;20238;-83
2023/11/11 12:18:33;;;;;;;1.60;1.00;;;;;;;;;;4952181;28;20210;-85
2023/11/11 12:21:01;;;;;;;1.43;0.90;;;;;;;;;;4938268;29;20227;-86
2023/11/11 12:23:29;;;;;;;1.13;1.00;;;;;;;;;;4967582;28;20218;-85
2023/11/11 12:25:55;;;;;;;1.47;0.90;;;;;;;;;;4949632;28;20243;-86
2023/11/11 12:28:20;;;;;;;2.87;1.30;;;;;;;;;;4980168;28;20237;-82
2023/11/11 12:30:48;;;;;;;1.90;1.10;;;;;;;;;;4953690;28;20361;-82
2023/11/11 12:33:17;;;;;;;3.00;1.30;;;;;;;;;;4965652;28;20293;-84
2023/11/11 12:35:45;;;;;;;0.90;0.90;;;;;;;;;;4948568;28;20210;-85
2023/11/11 12:38:24;;;;;;;1.30;1.20;;;;;;;;;;4964996;28;20220;-85
2023/11/11 12:40:53;;;;;;;1.33;1.10;;;;;;;;;;4961324;28;20218;-85
2023/11/11 12:43:22;;;;;;;0.70;0.70;;;;;;;;;;4960041;28;20226;-87
2023/11/11 12:45:59;;;;;;;1.73;1.10;;;;;;;;;;4947866;28;20227;-85
2023/11/11 12:48:31;;;;;;;1.70;1.60;;;;;;;;;;4968475;28;20236;-85
2023/11/11 12:51:01;;;;;;;1.90;1.80;;;;;;;;;;4946705;28;20232;-86
2023/11/11 12:53:29;;;;;;;1.83;1.70;;;;;;;;;;4964009;28;21585;-86
2023/11/11 12:56:03;;;;;;;2.17;2.07;;;;;;;;;;4947898;28;20233;-87
2023/11/11 12:58:29;;;;;;;1.83;1.50;;;;;;;;;;4958748;28;20229;-88
2023/11/11 13:01:01;;;;;;;1.80;1.70;;;;;;;;;;4956886;28;20222;-85
2023/11/11 13:03:30;;;;;;;4.93;1.63;;;;;;;;;;4969979;28;20221;-85
2023/11/11 13:05:57;;;;;;;2.03;1.50;;;;;;;;;;4928640;28;20269;-84
2023/11/11 13:08:23;;;;;;;1.37;1.27;;;;;;;;;;4952809;28;20226;-86
2023/11/11 13:10:55;;;;;;;6.67;1.90;;;;;;;;;;4953083;28;20226;-85
2023/11/11 13:13:23;;;;;;;2.07;1.90;;;;;;;;;;4960780;28;20297;-85
2023/11/11 13:15:51;;;;;;;1.37;1.27;;;;;;;;;;4941985;29;20242;-84
2023/11/11 13:18:18;;;;;;;2.47;1.00;;;;;;;;;;4942124;28;20228;-84
2023/11/11 13:20:47;;;;;;;2.50;1.27;;;;;;;;;;4950155;28;20219;-85
2023/11/11 13:23:19;;;;;;;1.03;0.90;;;;;;;;;;4954694;28;20229;-86
2023/11/11 13:25:53;;;;;;;1.37;0.97;;;;;;;;;;4957369;28;20352;-87
2023/11/11 13:28:20;;;;;;;1.00;1.00;;;;;;;;;;4938285;28;20241;-85
2023/11/11 13:30:48;;;;;;;0.80;0.80;;;;;;;;;;4960046;28;20644;-84
2023/11/11 13:33:14;;;;;;;0.90;0.77;;;;;;;;;;4955218;28;20722;-85
2023/11/11 13:35:46;;;;;;;0.90;0.90;;;;;;;;;;4939827;29;20229;-83
2023/11/11 13:38:19;;;;;;;1.20;1.10;;;;;;;;;;4951502;28;20292;-85
2023/11/11 13:40:47;;;;;;;4.13;2.73;;;;;;;;;;4951744;28;20226;-84
2023/11/11 13:43:14;;;;;;;5.37;4.27;;;;;;;;;;4951664;28;20557;-85
2023/11/11 13:45:40;;;;;;;4.67;4.27;;;;;;;;;;4943275;28;20221;-87
2023/11/11 13:48:09;;;;;;;2.53;1.90;;;;;;;;;;4957700;28;20306;-86
2023/11/11 13:50:40;;;;;;;1.50;0.90;;;;;;;;;;4943221;28;20222;-83
2023/11/11 13:53:08;;;;;;;1.20;1.10;;;;;;;;;;4944595;28;20803;-85
2023/11/11 13:55:35;;;;;;;0.73;0.70;;;;;;;;;;4973821;28;20224;-84
2023/11/11 13:58:00;;;;;;;0.83;0.83;;;;;;;;;;4936925;28;20218;-85
2023/11/11 14:00:29;;;;;;;1.03;0.70;;;;;;;;;;4951911;28;20572;-86
2023/11/11 14:02:59;;;;;;;0.70;0.70;;;;;;;;;;4925594;28;20217;-85
2023/11/11 14:05:25;;;;;;;1.10;0.93;;;;;;;;;;4968956;28;20691;-85
2023/11/11 14:07:56;;;;;;;1.17;1.07;;;;;;;;;;4950727;28;20210;-87
2023/11/11 14:10:27;;;;;;;5.67;3.63;;;;;;;;;;4938429;28;20261;-86
2023/11/11 14:12:55;;;;;;;1.23;1.10;;;;;;;;;;4952081;28;20218;-86
2023/11/11 14:15:30;;;;;;;1.23;0.90;;;;;;;;;;4957674;28;20237;-86
2023/11/11 14:17:58;;;;;;;1.00;1.00;;;;;;;;;;4928307;28;21182;-85
2023/11/11 14:20:29;;;;;;;1.20;1.10;;;;;;;;;;4954325;28;21624;-87
2023/11/11 14:22:56;;;;;;;2.43;1.17;;;;;;;;;;4946857;28;20233;-87
2023/11/11 14:25:22;;;;;;;4.10;0.67;;;;;;;;;;4972995;28;20218;-86
2023/11/11 14:27:52;;;;;;;2.53;0.80;;;;;;;;;;4949903;28;20230;-87
2023/11/11 14:30:18;;;;;;;0.73;0.60;;;;;;;;;;4956288;28;20773;-87
2023/11/11 14:32:50;;;;;;;0.60;0.60;;;;;;;;;;4934481;28;20218;-86
2023/11/11 14:35:16;;;;;;;0.60;0.60;;;;;;;;;;4955509;28;20241;-87
2023/11/11 14:37:55;;;;;;;1.17;0.70;;;;;;;;;;4940289;28;20302;-87
2023/11/11 14:40:26;;;;;;;0.70;0.70;;;;;;;;;;4939751;28;20225;-86
2023/11/11 14:42:52;;;;;;;0.83;0.63;;;;;;;;;;4940010;28;20242;-86
2023/11/11 14:45:18;;;;;;;1.67;0.87;;;;;;;;;;4976084;28;20229;-85
2023/11/11 14:47:45;;;;;;;0.83;0.70;;;;;;;;;;4963125;28;20290;-86